sensor_id;sensor_type;location;lat;lon;timestamp;P1;durP1;ratioP1;P2;durP2;ratioP2
71042;SDS011;58696;52.134;5.500;2022-12-16T00:02:19;26.75;;;14.82;;
71042;SDS011;58696;52.134;5.500;2022-12-16T00:04:48;28.60;;;15.68;;
71042;SDS011;58696;52.134;5.500;2022-12-16T00:07:16;31.63;;;15.93;;
71042;SDS011;58696;52.134;5.500;2022-12-16T00:09:47;28.13;;;15.10;;
71042;SDS011;58696;52.134;5.500;2022-12-16T00:12:14;31.80;;;14.68;;
71042;SDS011;58696;52.134;5.500;2022-12-16T00:14:41;32.30;;;16.83;;
71042;SDS011;58696;52.134;5.500;2022-12-16T00:17:09;22.75;;;15.68;;
71042;SDS011;58696;52.134;5.500;2022-12-16T00:19:36;24.58;;;14.73;;
71042;SDS011;58696;52.134;5.500;2022-12-16T00:22:03;28.25;;;16.55;;
71042;SDS011;58696;52.134;5.500;2022-12-16T00:24:32;31.67;;;16.38;;
71042;SDS011;58696;52.134;5.500;2022-12-16T00:26:59;28.67;;;16.73;;
71042;SDS011;58696;52.134;5.500;2022-12-16T00:29:26;28.33;;;14.98;;
71042;SDS011;58696;52.134;5.500;2022-12-16T00:31:53;25.42;;;14.23;;
71042;SDS011;58696;52.134;5.500;2022-12-16T00:34:26;27.52;;;15.25;;
71042;SDS011;58696;52.134;5.500;2022-12-16T00:36:54;22.25;;;14.65;;
71042;SDS011;58696;52.134;5.500;2022-12-16T00:39:20;29.70;;;16.02;;
71042;SDS011;58696;52.134;5.500;2022-12-16T00:41:50;26.67;;;15.52;;
71042;SDS011;58696;52.134;5.500;2022-12-16T00:44:17;30.90;;;15.88;;
71042;SDS011;58696;52.134;5.500;2022-12-16T00:46:43;26.08;;;15.07;;
71042;SDS011;58696;52.134;5.500;2022-12-16T00:49:11;24.08;;;13.13;;
71042;SDS011;58696;52.134;5.500;2022-12-16T00:51:40;25.23;;;14.10;;
71042;SDS011;58696;52.134;5.500;2022-12-16T00:54:06;34.95;;;16.02;;
71042;SDS011;58696;52.134;5.500;2022-12-16T00:56:33;28.25;;;15.27;;
71042;SDS011;58696;52.134;5.500;2022-12-16T00:59:00;32.83;;;14.80;;
71042;SDS011;58696;52.134;5.500;2022-12-16T01:01:28;29.92;;;15.57;;
71042;SDS011;58696;52.134;5.500;2022-12-16T01:03:55;23.92;;;14.65;;
71042;SDS011;58696;52.134;5.500;2022-12-16T01:06:23;25.98;;;15.27;;
71042;SDS011;58696;52.134;5.500;2022-12-16T01:08:53;28.20;;;13.80;;
71042;SDS011;58696;52.134;5.500;2022-12-16T01:11:23;29.05;;;14.88;;
71042;SDS011;58696;52.134;5.500;2022-12-16T01:13:50;32.05;;;15.77;;
71042;SDS011;58696;52.134;5.500;2022-12-16T01:16:20;32.30;;;16.52;;
71042;SDS011;58696;52.134;5.500;2022-12-16T01:18:47;25.35;;;13.32;;
71042;SDS011;58696;52.134;5.500;2022-12-16T01:21:14;31.73;;;15.30;;
71042;SDS011;58696;52.134;5.500;2022-12-16T01:23:42;28.52;;;15.75;;
71042;SDS011;58696;52.134;5.500;2022-12-16T01:26:08;25.90;;;15.45;;
71042;SDS011;58696;52.134;5.500;2022-12-16T01:28:41;25.50;;;15.48;;
71042;SDS011;58696;52.134;5.500;2022-12-16T01:31:08;35.53;;;17.52;;
71042;SDS011;58696;52.134;5.500;2022-12-16T01:33:35;30.40;;;15.20;;
71042;SDS011;58696;52.134;5.500;2022-12-16T01:36:06;27.17;;;15.75;;
71042;SDS011;58696;52.134;5.500;2022-12-16T01:38:34;26.30;;;15.05;;
71042;SDS011;58696;52.134;5.500;2022-12-16T01:41:03;25.20;;;14.75;;
71042;SDS011;58696;52.134;5.500;2022-12-16T01:43:35;31.95;;;16.42;;
71042;SDS011;58696;52.134;5.500;2022-12-16T01:46:15;25.35;;;15.80;;
71042;SDS011;58696;52.134;5.500;2022-12-16T01:48:53;24.70;;;13.88;;
71042;SDS011;58696;52.134;5.500;2022-12-16T01:51:34;25.83;;;15.43;;
71042;SDS011;58696;52.134;5.500;2022-12-16T01:54:16;25.10;;;14.68;;
71042;SDS011;58696;52.134;5.500;2022-12-16T01:56:49;26.25;;;15.80;;
71042;SDS011;58696;52.134;5.500;2022-12-16T01:59:24;26.33;;;14.80;;
71042;SDS011;58696;52.134;5.500;2022-12-16T02:01:53;22.83;;;14.82;;
71042;SDS011;58696;52.134;5.500;2022-12-16T02:04:22;37.05;;;15.70;;
71042;SDS011;58696;52.134;5.500;2022-12-16T02:06:49;32.83;;;16.08;;
71042;SDS011;58696;52.134;5.500;2022-12-16T02:09:16;25.23;;;15.50;;
71042;SDS011;58696;52.134;5.500;2022-12-16T02:22:46;27.05;;;14.73;;
71042;SDS011;58696;52.134;5.500;2022-12-16T02:25:46;24.30;;;14.07;;
71042;SDS011;58696;52.134;5.500;2022-12-16T02:28:41;27.95;;;14.07;;
71042;SDS011;58696;52.134;5.500;2022-12-16T02:39:39;25.98;;;14.50;;
71042;SDS011;58696;52.134;5.500;2022-12-16T02:42:19;23.75;;;14.85;;
71042;SDS011;58696;52.134;5.500;2022-12-16T02:47:45;31.73;;;16.17;;
71042;SDS011;58696;52.134;5.500;2022-12-16T02:50:16;24.55;;;14.93;;
71042;SDS011;58696;52.134;5.500;2022-12-16T02:52:46;35.67;;;15.60;;
71042;SDS011;58696;52.134;5.500;2022-12-16T02:55:15;30.88;;;16.13;;
71042;SDS011;58696;52.134;5.500;2022-12-16T03:00:24;21.67;;;14.48;;
71042;SDS011;58696;52.134;5.500;2022-12-16T03:05:43;29.88;;;14.68;;
71042;SDS011;58696;52.134;5.500;2022-12-16T03:08:14;26.08;;;15.52;;
71042;SDS011;58696;52.134;5.500;2022-12-16T03:10:47;26.80;;;14.68;;
71042;SDS011;58696;52.134;5.500;2022-12-16T03:13:26;27.00;;;15.77;;
71042;SDS011;58696;52.134;5.500;2022-12-16T03:15:58;26.63;;;16.50;;
71042;SDS011;58696;52.134;5.500;2022-12-16T03:18:26;38.20;;;16.27;;
71042;SDS011;58696;52.134;5.500;2022-12-16T03:20:58;27.85;;;14.88;;
71042;SDS011;58696;52.134;5.500;2022-12-16T03:23:33;30.15;;;15.88;;
71042;SDS011;58696;52.134;5.500;2022-12-16T03:26:12;24.00;;;14.00;;
71042;SDS011;58696;52.134;5.500;2022-12-16T03:28:57;23.13;;;13.27;;
71042;SDS011;58696;52.134;5.500;2022-12-16T03:31:30;24.65;;;12.73;;
71042;SDS011;58696;52.134;5.500;2022-12-16T03:36:38;23.27;;;12.65;;
71042;SDS011;58696;52.134;5.500;2022-12-16T03:39:09;29.67;;;13.18;;
71042;SDS011;58696;52.134;5.500;2022-12-16T03:41:37;31.52;;;14.82;;
71042;SDS011;58696;52.134;5.500;2022-12-16T03:44:07;22.27;;;13.32;;
71042;SDS011;58696;52.134;5.500;2022-12-16T03:46:36;27.58;;;13.32;;
71042;SDS011;58696;52.134;5.500;2022-12-16T03:49:08;20.92;;;13.07;;
71042;SDS011;58696;52.134;5.500;2022-12-16T03:51:35;22.88;;;14.20;;
71042;SDS011;58696;52.134;5.500;2022-12-16T03:54:04;26.92;;;12.98;;
71042;SDS011;58696;52.134;5.500;2022-12-16T03:56:31;22.52;;;12.50;;
71042;SDS011;58696;52.134;5.500;2022-12-16T04:01:30;20.02;;;10.90;;
71042;SDS011;58696;52.134;5.500;2022-12-16T04:03:58;24.65;;;12.63;;
71042;SDS011;58696;52.134;5.500;2022-12-16T04:06:25;25.20;;;12.93;;
71042;SDS011;58696;52.134;5.500;2022-12-16T04:08:52;25.90;;;13.63;;
71042;SDS011;58696;52.134;5.500;2022-12-16T04:11:22;29.33;;;14.23;;
71042;SDS011;58696;52.134;5.500;2022-12-16T04:14:07;21.13;;;13.05;;
71042;SDS011;58696;52.134;5.500;2022-12-16T04:16:53;25.88;;;13.50;;
71042;SDS011;58696;52.134;5.500;2022-12-16T04:19:39;23.13;;;13.07;;
71042;SDS011;58696;52.134;5.500;2022-12-16T04:22:32;21.85;;;12.77;;
71042;SDS011;58696;52.134;5.500;2022-12-16T04:25:21;21.33;;;12.82;;
71042;SDS011;58696;52.134;5.500;2022-12-16T04:27:56;26.35;;;13.75;;
71042;SDS011;58696;52.134;5.500;2022-12-16T04:30:24;36.33;;;13.65;;
71042;SDS011;58696;52.134;5.500;2022-12-16T04:35:41;19.17;;;11.82;;
71042;SDS011;58696;52.134;5.500;2022-12-16T04:38:29;21.60;;;13.27;;
71042;SDS011;58696;52.134;5.500;2022-12-16T04:41:14;26.17;;;13.20;;
71042;SDS011;58696;52.134;5.500;2022-12-16T04:44:00;32.15;;;13.98;;
71042;SDS011;58696;52.134;5.500;2022-12-16T04:46:45;23.55;;;12.55;;
71042;SDS011;58696;52.134;5.500;2022-12-16T04:49:30;24.55;;;12.98;;
71042;SDS011;58696;52.134;5.500;2022-12-16T04:52:17;25.80;;;14.45;;
71042;SDS011;58696;52.134;5.500;2022-12-16T04:55:03;27.83;;;13.60;;
71042;SDS011;58696;52.134;5.500;2022-12-16T04:57:55;23.58;;;12.68;;
71042;SDS011;58696;52.134;5.500;2022-12-16T05:00:44;18.52;;;12.32;;
71042;SDS011;58696;52.134;5.500;2022-12-16T05:03:35;27.83;;;13.88;;
71042;SDS011;58696;52.134;5.500;2022-12-16T05:09:09;18.98;;;11.38;;
71042;SDS011;58696;52.134;5.500;2022-12-16T05:11:54;25.42;;;12.32;;
71042;SDS011;58696;52.134;5.500;2022-12-16T05:14:40;21.25;;;11.20;;
71042;SDS011;58696;52.134;5.500;2022-12-16T05:17:26;22.23;;;12.32;;
71042;SDS011;58696;52.134;5.500;2022-12-16T05:20:13;23.23;;;12.57;;
71042;SDS011;58696;52.134;5.500;2022-12-16T05:22:59;23.23;;;13.27;;
71042;SDS011;58696;52.134;5.500;2022-12-16T05:25:46;27.08;;;13.52;;
71042;SDS011;58696;52.134;5.500;2022-12-16T05:28:31;22.73;;;13.70;;
71042;SDS011;58696;52.134;5.500;2022-12-16T05:31:16;21.50;;;12.57;;
71042;SDS011;58696;52.134;5.500;2022-12-16T05:34:01;25.15;;;14.38;;
71042;SDS011;58696;52.134;5.500;2022-12-16T05:36:47;26.00;;;13.35;;
71042;SDS011;58696;52.134;5.500;2022-12-16T05:39:33;19.95;;;12.93;;
71042;SDS011;58696;52.134;5.500;2022-12-16T05:42:18;18.20;;;11.75;;
71042;SDS011;58696;52.134;5.500;2022-12-16T05:45:03;18.88;;;10.88;;
71042;SDS011;58696;52.134;5.500;2022-12-16T05:47:49;17.00;;;10.85;;
71042;SDS011;58696;52.134;5.500;2022-12-16T05:50:43;22.33;;;12.00;;
71042;SDS011;58696;52.134;5.500;2022-12-16T05:53:29;20.23;;;10.82;;
71042;SDS011;58696;52.134;5.500;2022-12-16T05:56:17;20.33;;;11.32;;
71042;SDS011;58696;52.134;5.500;2022-12-16T05:59:02;16.27;;;9.57;;
71042;SDS011;58696;52.134;5.500;2022-12-16T06:01:47;14.80;;;8.13;;
71042;SDS011;58696;52.134;5.500;2022-12-16T06:04:33;12.48;;;8.23;;
71042;SDS011;58696;52.134;5.500;2022-12-16T06:07:18;14.20;;;9.43;;
71042;SDS011;58696;52.134;5.500;2022-12-16T06:10:04;10.98;;;7.88;;
71042;SDS011;58696;52.134;5.500;2022-12-16T06:12:50;10.13;;;7.07;;
71042;SDS011;58696;52.134;5.500;2022-12-16T06:15:38;10.13;;;6.38;;
71042;SDS011;58696;52.134;5.500;2022-12-16T06:18:28;10.60;;;6.10;;
71042;SDS011;58696;52.134;5.500;2022-12-16T06:21:14;14.57;;;6.90;;
71042;SDS011;58696;52.134;5.500;2022-12-16T06:24:01;7.72;;;5.47;;
71042;SDS011;58696;52.134;5.500;2022-12-16T06:26:46;10.18;;;7.40;;
71042;SDS011;58696;52.134;5.500;2022-12-16T06:29:32;10.23;;;6.63;;
71042;SDS011;58696;52.134;5.500;2022-12-16T06:32:18;12.52;;;7.68;;
71042;SDS011;58696;52.134;5.500;2022-12-16T06:35:04;11.70;;;7.65;;
71042;SDS011;58696;52.134;5.500;2022-12-16T06:37:51;10.35;;;6.85;;
71042;SDS011;58696;52.134;5.500;2022-12-16T06:40:37;11.93;;;7.50;;
71042;SDS011;58696;52.134;5.500;2022-12-16T06:43:42;10.65;;;7.22;;
71042;SDS011;58696;52.134;5.500;2022-12-16T06:46:27;10.52;;;6.90;;
71042;SDS011;58696;52.134;5.500;2022-12-16T06:49:12;14.00;;;7.30;;
71042;SDS011;58696;52.134;5.500;2022-12-16T06:51:58;12.82;;;7.82;;
71042;SDS011;58696;52.134;5.500;2022-12-16T06:54:43;12.77;;;7.70;;
71042;SDS011;58696;52.134;5.500;2022-12-16T06:57:31;20.13;;;8.45;;
71042;SDS011;58696;52.134;5.500;2022-12-16T07:00:16;11.75;;;7.07;;
71042;SDS011;58696;52.134;5.500;2022-12-16T07:03:03;10.40;;;7.22;;
71042;SDS011;58696;52.134;5.500;2022-12-16T07:05:51;10.60;;;6.85;;
71042;SDS011;58696;52.134;5.500;2022-12-16T07:08:39;20.73;;;9.88;;
71042;SDS011;58696;52.134;5.500;2022-12-16T07:11:24;16.83;;;9.98;;
71042;SDS011;58696;52.134;5.500;2022-12-16T07:14:10;17.35;;;8.70;;
71042;SDS011;58696;52.134;5.500;2022-12-16T07:16:55;17.90;;;8.13;;
71042;SDS011;58696;52.134;5.500;2022-12-16T07:19:42;11.43;;;7.53;;
71042;SDS011;58696;52.134;5.500;2022-12-16T07:22:27;19.25;;;7.50;;
71042;SDS011;58696;52.134;5.500;2022-12-16T07:25:27;16.58;;;7.53;;
71042;SDS011;58696;52.134;5.500;2022-12-16T07:28:13;10.73;;;7.03;;
71042;SDS011;58696;52.134;5.500;2022-12-16T07:31:14;9.50;;;6.40;;
71042;SDS011;58696;52.134;5.500;2022-12-16T07:34:00;10.63;;;6.53;;
71042;SDS011;58696;52.134;5.500;2022-12-16T07:36:46;12.98;;;6.38;;
71042;SDS011;58696;52.134;5.500;2022-12-16T07:39:31;9.95;;;5.90;;
71042;SDS011;58696;52.134;5.500;2022-12-16T07:42:21;11.35;;;6.43;;
71042;SDS011;58696;52.134;5.500;2022-12-16T07:45:07;11.50;;;7.35;;
71042;SDS011;58696;52.134;5.500;2022-12-16T07:47:53;14.05;;;6.68;;
71042;SDS011;58696;52.134;5.500;2022-12-16T07:50:39;13.50;;;7.25;;
71042;SDS011;58696;52.134;5.500;2022-12-16T07:53:25;16.30;;;8.07;;
71042;SDS011;58696;52.134;5.500;2022-12-16T07:56:10;14.48;;;9.77;;
71042;SDS011;58696;52.134;5.500;2022-12-16T07:58:56;22.90;;;12.80;;
71042;SDS011;58696;52.134;5.500;2022-12-16T08:01:42;21.50;;;10.98;;
71042;SDS011;58696;52.134;5.500;2022-12-16T08:04:27;29.35;;;14.23;;
71042;SDS011;58696;52.134;5.500;2022-12-16T08:07:12;29.40;;;15.52;;
71042;SDS011;58696;52.134;5.500;2022-12-16T08:09:58;37.28;;;19.45;;
71042;SDS011;58696;52.134;5.500;2022-12-16T08:12:43;27.92;;;16.10;;
71042;SDS011;58696;52.134;5.500;2022-12-16T08:15:28;19.83;;;10.77;;
71042;SDS011;58696;52.134;5.500;2022-12-16T08:18:16;14.48;;;7.97;;
71042;SDS011;58696;52.134;5.500;2022-12-16T08:21:02;13.30;;;7.60;;
71042;SDS011;58696;52.134;5.500;2022-12-16T08:23:48;12.23;;;7.30;;
71042;SDS011;58696;52.134;5.500;2022-12-16T08:26:34;13.18;;;6.85;;
71042;SDS011;58696;52.134;5.500;2022-12-16T08:29:20;9.82;;;6.10;;
71042;SDS011;58696;52.134;5.500;2022-12-16T08:32:10;14.20;;;7.43;;
71042;SDS011;58696;52.134;5.500;2022-12-16T08:34:56;14.70;;;7.22;;
71042;SDS011;58696;52.134;5.500;2022-12-16T08:37:46;7.20;;;5.18;;
71042;SDS011;58696;52.134;5.500;2022-12-16T08:40:39;7.27;;;4.43;;
71042;SDS011;58696;52.134;5.500;2022-12-16T08:43:32;6.40;;;4.25;;
71042;SDS011;58696;52.134;5.500;2022-12-16T08:46:20;9.98;;;4.20;;
71042;SDS011;58696;52.134;5.500;2022-12-16T08:49:05;5.45;;;3.58;;
71042;SDS011;58696;52.134;5.500;2022-12-16T08:51:51;7.43;;;3.97;;
71042;SDS011;58696;52.134;5.500;2022-12-16T08:54:36;5.55;;;3.28;;
71042;SDS011;58696;52.134;5.500;2022-12-16T08:57:21;9.52;;;3.80;;
71042;SDS011;58696;52.134;5.500;2022-12-16T09:00:07;5.32;;;3.35;;
71042;SDS011;58696;52.134;5.500;2022-12-16T09:02:56;7.43;;;4.60;;
71042;SDS011;58696;52.134;5.500;2022-12-16T09:05:43;5.60;;;3.67;;
71042;SDS011;58696;52.134;5.500;2022-12-16T09:08:29;8.13;;;3.85;;
71042;SDS011;58696;52.134;5.500;2022-12-16T09:11:14;6.68;;;3.78;;
71042;SDS011;58696;52.134;5.500;2022-12-16T09:14:00;6.78;;;3.33;;
71042;SDS011;58696;52.134;5.500;2022-12-16T09:16:45;6.55;;;4.00;;
71042;SDS011;58696;52.134;5.500;2022-12-16T09:19:31;8.27;;;3.80;;
71042;SDS011;58696;52.134;5.500;2022-12-16T09:22:19;8.40;;;3.72;;
71042;SDS011;58696;52.134;5.500;2022-12-16T09:25:04;5.95;;;3.50;;
71042;SDS011;58696;52.134;5.500;2022-12-16T09:27:51;11.57;;;5.72;;
71042;SDS011;58696;52.134;5.500;2022-12-16T09:30:37;8.45;;;3.97;;
71042;SDS011;58696;52.134;5.500;2022-12-16T09:33:33;7.25;;;3.90;;
71042;SDS011;58696;52.134;5.500;2022-12-16T09:36:18;13.88;;;3.95;;
71042;SDS011;58696;52.134;5.500;2022-12-16T09:39:03;8.25;;;3.75;;
71042;SDS011;58696;52.134;5.500;2022-12-16T09:42:38;7.53;;;4.65;;
71042;SDS011;58696;52.134;5.500;2022-12-16T09:45:02;9.52;;;5.25;;
71042;SDS011;58696;52.134;5.500;2022-12-16T09:51:03;9.07;;;6.03;;
71042;SDS011;58696;52.134;5.500;2022-12-16T09:53:52;7.47;;;4.53;;
71042;SDS011;58696;52.134;5.500;2022-12-16T09:56:40;13.55;;;6.82;;
71042;SDS011;58696;52.134;5.500;2022-12-16T09:59:28;16.75;;;4.65;;
71042;SDS011;58696;52.134;5.500;2022-12-16T10:02:19;10.15;;;6.00;;
71042;SDS011;58696;52.134;5.500;2022-12-16T10:05:08;8.30;;;5.57;;
71042;SDS011;58696;52.134;5.500;2022-12-16T10:11:03;4.05;;;3.08;;
71042;SDS011;58696;52.134;5.500;2022-12-16T10:14:00;7.57;;;5.22;;
71042;SDS011;58696;52.134;5.500;2022-12-16T10:17:08;8.02;;;3.15;;
71042;SDS011;58696;52.134;5.500;2022-12-16T10:20:01;10.93;;;3.25;;
71042;SDS011;58696;52.134;5.500;2022-12-16T10:25:42;7.50;;;5.00;;
71042;SDS011;58696;52.134;5.500;2022-12-16T10:28:46;8.27;;;3.22;;
71042;SDS011;58696;52.134;5.500;2022-12-16T10:31:33;7.68;;;3.25;;
71042;SDS011;58696;52.134;5.500;2022-12-16T10:34:28;7.32;;;3.53;;
71042;SDS011;58696;52.134;5.500;2022-12-16T10:37:15;9.02;;;3.70;;
71042;SDS011;58696;52.134;5.500;2022-12-16T10:40:17;6.85;;;4.20;;
71042;SDS011;58696;52.134;5.500;2022-12-16T10:43:17;5.30;;;4.03;;
71042;SDS011;58696;52.134;5.500;2022-12-16T10:46:09;9.57;;;5.93;;
71042;SDS011;58696;52.134;5.500;2022-12-16T10:49:01;6.40;;;4.10;;
71042;SDS011;58696;52.134;5.500;2022-12-16T10:51:46;14.75;;;10.05;;
71042;SDS011;58696;52.134;5.500;2022-12-16T10:54:38;9.27;;;5.85;;
71042;SDS011;58696;52.134;5.500;2022-12-16T10:57:36;9.35;;;6.10;;
71042;SDS011;58696;52.134;5.500;2022-12-16T11:00:44;7.57;;;4.72;;
71042;SDS011;58696;52.134;5.500;2022-12-16T11:03:33;14.68;;;5.32;;
71042;SDS011;58696;52.134;5.500;2022-12-16T11:06:21;10.10;;;4.63;;
71042;SDS011;58696;52.134;5.500;2022-12-16T11:12:21;9.75;;;6.18;;
71042;SDS011;58696;52.134;5.500;2022-12-16T11:18:17;9.10;;;5.57;;
71042;SDS011;58696;52.134;5.500;2022-12-16T11:21:12;9.82;;;6.82;;
71042;SDS011;58696;52.134;5.500;2022-12-16T11:27:00;9.57;;;6.03;;
71042;SDS011;58696;52.134;5.500;2022-12-16T11:30:02;14.40;;;6.72;;
71042;SDS011;58696;52.134;5.500;2022-12-16T11:32:59;19.13;;;7.93;;
71042;SDS011;58696;52.134;5.500;2022-12-16T11:35:55;12.02;;;7.50;;
71042;SDS011;58696;52.134;5.500;2022-12-16T11:38:49;13.35;;;7.40;;
71042;SDS011;58696;52.134;5.500;2022-12-16T11:41:41;12.07;;;7.43;;
71042;SDS011;58696;52.134;5.500;2022-12-16T11:44:45;11.70;;;8.35;;
71042;SDS011;58696;52.134;5.500;2022-12-16T11:50:31;15.88;;;8.60;;
71042;SDS011;58696;52.134;5.500;2022-12-16T11:56:38;14.50;;;10.45;;
71042;SDS011;58696;52.134;5.500;2022-12-16T11:59:35;32.65;;;20.45;;
71042;SDS011;58696;52.134;5.500;2022-12-16T12:09:35;16.45;;;9.52;;
71042;SDS011;58696;52.134;5.500;2022-12-16T12:15:37;15.50;;;9.40;;
71042;SDS011;58696;52.134;5.500;2022-12-16T12:18:41;15.43;;;9.60;;
71042;SDS011;58696;52.134;5.500;2022-12-16T12:22:25;14.82;;;9.60;;
71042;SDS011;58696;52.134;5.500;2022-12-16T12:24:52;15.60;;;10.00;;
71042;SDS011;58696;52.134;5.500;2022-12-16T12:28:11;11.65;;;9.10;;
71042;SDS011;58696;52.134;5.500;2022-12-16T12:31:27;14.32;;;9.55;;
71042;SDS011;58696;52.134;5.500;2022-12-16T12:37:32;12.18;;;8.65;;
71042;SDS011;58696;52.134;5.500;2022-12-16T12:46:44;16.73;;;12.23;;
71042;SDS011;58696;52.134;5.500;2022-12-16T12:56:20;19.25;;;11.38;;
71042;SDS011;58696;52.134;5.500;2022-12-16T12:59:15;14.18;;;10.15;;
71042;SDS011;58696;52.134;5.500;2022-12-16T13:02:14;19.35;;;10.57;;
71042;SDS011;58696;52.134;5.500;2022-12-16T13:05:09;17.38;;;10.30;;
71042;SDS011;58696;52.134;5.500;2022-12-16T13:11:16;31.77;;;14.52;;
71042;SDS011;58696;52.134;5.500;2022-12-16T13:14:12;34.05;;;16.30;;
71042;SDS011;58696;52.134;5.500;2022-12-16T13:17:21;27.20;;;14.73;;
71042;SDS011;58696;52.134;5.500;2022-12-16T13:23:37;25.80;;;13.38;;
71042;SDS011;58696;52.134;5.500;2022-12-16T13:26:25;24.08;;;12.73;;
71042;SDS011;58696;52.134;5.500;2022-12-16T13:37:50;19.73;;;11.85;;
71042;SDS011;58696;52.134;5.500;2022-12-16T13:40:48;18.20;;;12.40;;
71042;SDS011;58696;52.134;5.500;2022-12-16T13:46:42;18.98;;;13.23;;
71042;SDS011;58696;52.134;5.500;2022-12-16T13:55:51;17.38;;;11.68;;
71042;SDS011;58696;52.134;5.500;2022-12-16T13:58:44;16.88;;;11.75;;
71042;SDS011;58696;52.134;5.500;2022-12-16T14:01:36;18.10;;;11.13;;
71042;SDS011;58696;52.134;5.500;2022-12-16T14:04:33;19.48;;;11.77;;
71042;SDS011;58696;52.134;5.500;2022-12-16T14:07:21;16.65;;;11.80;;
71042;SDS011;58696;52.134;5.500;2022-12-16T14:10:26;18.48;;;12.32;;
71042;SDS011;58696;52.134;5.500;2022-12-16T14:16:24;17.23;;;12.98;;
71042;SDS011;58696;52.134;5.500;2022-12-16T14:25:22;17.35;;;12.80;;
71042;SDS011;58696;52.134;5.500;2022-12-16T14:31:16;17.23;;;12.45;;
71042;SDS011;58696;52.134;5.500;2022-12-16T14:37:16;16.00;;;10.88;;
71042;SDS011;58696;52.134;5.500;2022-12-16T14:40:19;21.33;;;13.73;;
71042;SDS011;58696;52.134;5.500;2022-12-16T14:43:18;26.52;;;13.88;;
71042;SDS011;58696;52.134;5.500;2022-12-16T14:46:05;18.77;;;12.77;;
71042;SDS011;58696;52.134;5.500;2022-12-16T14:49:03;20.92;;;12.68;;
71042;SDS011;58696;52.134;5.500;2022-12-16T14:52:11;19.55;;;13.70;;
71042;SDS011;58696;52.134;5.500;2022-12-16T14:55:04;18.73;;;13.80;;
71042;SDS011;58696;52.134;5.500;2022-12-16T14:58:11;27.45;;;14.30;;
71042;SDS011;58696;52.134;5.500;2022-12-16T15:03:59;20.08;;;13.25;;
71042;SDS011;58696;52.134;5.500;2022-12-16T15:06:48;19.98;;;14.27;;
71042;SDS011;58696;52.134;5.500;2022-12-16T15:09:37;22.08;;;14.35;;
71042;SDS011;58696;52.134;5.500;2022-12-16T15:12:26;22.38;;;14.82;;
71042;SDS011;58696;52.134;5.500;2022-12-16T15:15:17;28.77;;;15.40;;
71042;SDS011;58696;52.134;5.500;2022-12-16T15:18:13;28.73;;;16.20;;
71042;SDS011;58696;52.134;5.500;2022-12-16T15:21:03;26.48;;;15.10;;
71042;SDS011;58696;52.134;5.500;2022-12-16T15:23:51;32.05;;;14.25;;
71042;SDS011;58696;52.134;5.500;2022-12-16T15:26:37;28.05;;;15.20;;
71042;SDS011;58696;52.134;5.500;2022-12-16T15:29:40;36.13;;;18.58;;
71042;SDS011;58696;52.134;5.500;2022-12-16T15:35:30;29.13;;;16.33;;
71042;SDS011;58696;52.134;5.500;2022-12-16T15:38:26;28.35;;;16.50;;
71042;SDS011;58696;52.134;5.500;2022-12-16T15:41:18;24.20;;;14.18;;
71042;SDS011;58696;52.134;5.500;2022-12-16T15:44:24;38.50;;;20.10;;
71042;SDS011;58696;52.134;5.500;2022-12-16T15:47:18;37.33;;;18.75;;
71042;SDS011;58696;52.134;5.500;2022-12-16T15:50:05;33.53;;;19.25;;
71042;SDS011;58696;52.134;5.500;2022-12-16T15:53:13;35.22;;;19.75;;
71042;SDS011;58696;52.134;5.500;2022-12-16T15:56:20;34.70;;;19.67;;
71042;SDS011;58696;52.134;5.500;2022-12-16T15:59:13;28.33;;;17.70;;
71042;SDS011;58696;52.134;5.500;2022-12-16T16:02:09;24.20;;;16.15;;
71042;SDS011;58696;52.134;5.500;2022-12-16T16:05:00;22.85;;;15.48;;
71042;SDS011;58696;52.134;5.500;2022-12-16T16:07:46;30.13;;;16.50;;
71042;SDS011;58696;52.134;5.500;2022-12-16T16:10:32;22.23;;;15.10;;
71042;SDS011;58696;52.134;5.500;2022-12-16T16:13:17;27.90;;;15.23;;
71042;SDS011;58696;52.134;5.500;2022-12-16T16:16:03;24.05;;;14.40;;
71042;SDS011;58696;52.134;5.500;2022-12-16T16:18:50;21.42;;;15.00;;
71042;SDS011;58696;52.134;5.500;2022-12-16T16:21:36;21.63;;;14.32;;
71042;SDS011;58696;52.134;5.500;2022-12-16T16:24:21;22.63;;;14.35;;
71042;SDS011;58696;52.134;5.500;2022-12-16T16:27:08;22.17;;;15.57;;
71042;SDS011;58696;52.134;5.500;2022-12-16T16:29:56;26.73;;;17.08;;
71042;SDS011;58696;52.134;5.500;2022-12-16T16:32:42;23.23;;;15.77;;
71042;SDS011;58696;52.134;5.500;2022-12-16T16:35:30;21.42;;;13.82;;
71042;SDS011;58696;52.134;5.500;2022-12-16T16:38:33;20.73;;;13.20;;
71042;SDS011;58696;52.134;5.500;2022-12-16T16:41:21;19.95;;;13.00;;
71042;SDS011;58696;52.134;5.500;2022-12-16T16:44:06;23.27;;;13.88;;
71042;SDS011;58696;52.134;5.500;2022-12-16T16:46:51;18.58;;;12.48;;
71042;SDS011;58696;52.134;5.500;2022-12-16T16:49:41;20.63;;;13.02;;
71042;SDS011;58696;52.134;5.500;2022-12-16T16:52:29;24.52;;;15.00;;
71042;SDS011;58696;52.134;5.500;2022-12-16T16:55:21;22.25;;;15.07;;
71042;SDS011;58696;52.134;5.500;2022-12-16T16:58:12;21.60;;;14.82;;
71042;SDS011;58696;52.134;5.500;2022-12-16T17:01:04;25.25;;;15.13;;
71042;SDS011;58696;52.134;5.500;2022-12-16T17:03:50;24.23;;;14.60;;
71042;SDS011;58696;52.134;5.500;2022-12-16T17:06:36;21.27;;;12.13;;
71042;SDS011;58696;52.134;5.500;2022-12-16T17:09:22;29.88;;;18.50;;
71042;SDS011;58696;52.134;5.500;2022-12-16T17:12:18;23.42;;;13.85;;
71042;SDS011;58696;52.134;5.500;2022-12-16T17:15:12;21.05;;;13.80;;
71042;SDS011;58696;52.134;5.500;2022-12-16T17:17:59;25.70;;;14.63;;
71042;SDS011;58696;52.134;5.500;2022-12-16T17:20:44;23.50;;;13.63;;
71042;SDS011;58696;52.134;5.500;2022-12-16T17:23:30;19.15;;;12.77;;
71042;SDS011;58696;52.134;5.500;2022-12-16T17:26:15;24.17;;;15.20;;
71042;SDS011;58696;52.134;5.500;2022-12-16T17:29:02;22.05;;;14.02;;
71042;SDS011;58696;52.134;5.500;2022-12-16T17:31:48;23.00;;;15.10;;
71042;SDS011;58696;52.134;5.500;2022-12-16T17:34:34;22.25;;;14.55;;
71042;SDS011;58696;52.134;5.500;2022-12-16T17:37:20;22.20;;;15.55;;
71042;SDS011;58696;52.134;5.500;2022-12-16T17:40:05;21.45;;;15.25;;
71042;SDS011;58696;52.134;5.500;2022-12-16T17:42:50;22.33;;;14.48;;
71042;SDS011;58696;52.134;5.500;2022-12-16T17:45:36;19.85;;;13.88;;
71042;SDS011;58696;52.134;5.500;2022-12-16T17:48:21;21.73;;;12.80;;
71042;SDS011;58696;52.134;5.500;2022-12-16T17:51:10;23.23;;;13.98;;
71042;SDS011;58696;52.134;5.500;2022-12-16T17:53:56;19.70;;;13.38;;
71042;SDS011;58696;52.134;5.500;2022-12-16T17:56:51;24.17;;;15.93;;
71042;SDS011;58696;52.134;5.500;2022-12-16T17:59:36;23.50;;;14.68;;
71042;SDS011;58696;52.134;5.500;2022-12-16T18:02:21;30.60;;;14.60;;
71042;SDS011;58696;52.134;5.500;2022-12-16T18:05:08;24.85;;;14.38;;
71042;SDS011;58696;52.134;5.500;2022-12-16T18:08:04;20.17;;;12.60;;
71042;SDS011;58696;52.134;5.500;2022-12-16T18:10:53;23.98;;;14.73;;
71042;SDS011;58696;52.134;5.500;2022-12-16T18:13:42;20.20;;;11.98;;
71042;SDS011;58696;52.134;5.500;2022-12-16T18:16:28;25.90;;;14.52;;
71042;SDS011;58696;52.134;5.500;2022-12-16T18:19:16;22.73;;;13.93;;
71042;SDS011;58696;52.134;5.500;2022-12-16T18:22:03;24.83;;;13.80;;
71042;SDS011;58696;52.134;5.500;2022-12-16T18:24:49;23.05;;;13.60;;
71042;SDS011;58696;52.134;5.500;2022-12-16T18:27:35;23.52;;;14.65;;
71042;SDS011;58696;52.134;5.500;2022-12-16T18:30:20;23.20;;;14.50;;